createdAt,value
2019-02-11T00:01:46.423Z,56.93
2019-02-11T00:06:56.420Z,56.76
2019-02-11T00:12:03.120Z,56.58
2019-02-11T00:17:13.299Z,56.13
2019-02-11T00:22:18.984Z,56.22
2019-02-11T00:27:29.190Z,56.23
2019-02-11T00:32:35.015Z,56.33
2019-02-11T00:37:43.859Z,56.81
2019-02-11T00:42:49.745Z,56.81
2019-02-11T00:47:57.909Z,57.20
2019-02-11T00:53:09.818Z,56.90
2019-02-11T00:58:15.637Z,57.42
2019-02-11T01:03:24.276Z,57.91
2019-02-11T01:08:32.648Z,58.86
2019-02-11T01:13:38.388Z,60.58
2019-02-11T01:18:47.216Z,60.66
2019-02-11T01:23:53.343Z,61.41
2019-02-11T01:34:08.462Z,61.53
2019-02-11T01:39:14.167Z,62.46
2019-02-11T01:44:20.070Z,63.29
2019-02-11T01:49:25.794Z,64.73
2019-02-11T01:54:31.552Z,64.73
2019-02-11T02:04:44.190Z,65.66
2019-02-11T02:09:55.336Z,66.48
2019-02-11T02:15:01.166Z,67.39
2019-02-11T02:20:10.059Z,68.05
2019-02-11T02:25:18.750Z,69.58
2019-02-11T02:30:24.515Z,69.58
2019-02-11T02:35:34.973Z,69.49
2019-02-11T02:40:42.991Z,69.60
2019-02-11T02:45:50.349Z,69.46
2019-02-11T02:50:56.256Z,69.56
2019-02-11T02:56:02.500Z,69.70
2019-02-11T03:01:08.199Z,69.80
2019-02-11T03:06:16.040Z,70.35
2019-02-11T03:11:21.790Z,70.50
2019-02-11T03:16:27.795Z,69.95
2019-02-11T03:21:36.517Z,69.65
2019-02-11T03:26:43.999Z,70.42
2019-02-11T03:31:49.702Z,70.49
2019-02-11T03:36:55.443Z,70.70
2019-02-11T03:42:03.307Z,70.95
2019-02-11T03:47:10.511Z,70.96
2019-02-11T03:52:16.191Z,71.40
2019-02-11T03:57:24.789Z,71.07
2019-02-11T04:02:30.492Z,71.88
2019-02-11T04:07:38.578Z,71.85
2019-02-11T04:12:51.344Z,72.04
2019-02-11T04:17:57.134Z,72.56
2019-02-11T04:23:04.537Z,72.79
2019-02-11T04:28:10.391Z,72.77
2019-02-11T04:33:16.260Z,72.79
2019-02-11T04:38:22.558Z,72.44
2019-02-11T04:43:28.257Z,72.35
2019-02-11T04:48:39.839Z,72.07
2019-02-11T04:53:46.864Z,71.27
2019-02-11T04:58:52.481Z,71.31
2019-02-11T05:03:59.412Z,70.71
2019-02-11T05:09:07.984Z,71.32
2019-02-11T05:14:13.668Z,70.99
2019-02-11T05:19:19.390Z,70.34
2019-02-11T05:24:25.107Z,70.37
2019-02-11T05:29:30.805Z,69.62
2019-02-11T05:34:36.552Z,69.18
2019-02-11T05:39:44.011Z,69.96
2019-02-11T05:44:53.925Z,69.60
2019-02-11T05:50:03.831Z,69.60
2019-02-11T05:55:11.333Z,69.73
2019-02-11T06:00:21.786Z,69.94
2019-02-11T06:05:27.617Z,69.92
2019-02-11T06:10:38.213Z,69.89
2019-02-11T06:15:46.744Z,70.25
2019-02-11T06:20:54.060Z,70.67
2019-02-11T06:25:59.851Z,70.26
2019-02-11T06:31:08.727Z,71.28
2019-02-11T06:36:17.779Z,70.80
2019-02-11T06:41:23.475Z,70.63
2019-02-11T06:46:31.196Z,71.16
2019-02-11T06:51:36.972Z,71.19
2019-02-11T06:56:49.275Z,71.11
2019-02-11T07:01:54.943Z,71.16
2019-02-11T07:07:02.181Z,71.22
2019-02-11T07:12:14.442Z,71.92
2019-02-11T07:17:22.132Z,72.25
2019-02-11T07:22:29.692Z,71.21
2019-02-11T07:27:37.393Z,71.09
2019-02-11T07:32:45.950Z,71.90
2019-02-11T07:37:54.932Z,71.44
2019-02-11T07:43:26.355Z,71.19
2019-02-11T07:48:33.338Z,70.33
2019-02-11T07:53:40.043Z,70.56
2019-02-11T07:58:45.780Z,70.56
2019-02-11T08:03:51.440Z,70.31
2019-02-11T08:09:00.209Z,69.63
2019-02-11T08:14:08.130Z,69.42
2019-02-11T08:19:13.967Z,69.10
2019-02-11T08:24:25.650Z,68.30
2019-02-11T08:29:31.441Z,67.52
2019-02-11T08:34:37.092Z,67.85
2019-02-11T08:39:43.780Z,67.85
2019-02-11T08:44:54.340Z,67.77
2019-02-11T08:50:02.452Z,66.88
2019-02-11T08:55:10.218Z,66.88
2019-02-11T09:00:18.870Z,67.01
2019-02-11T09:05:24.692Z,66.11
2019-02-11T09:10:30.427Z,65.92
2019-02-11T09:15:55.389Z,66.13
2019-02-11T09:21:05.007Z,65.52
2019-02-11T09:26:10.782Z,65.32
2019-02-11T09:31:21.215Z,65.32
2019-02-11T09:36:29.101Z,64.55
2019-02-11T09:41:39.377Z,64.36
2019-02-11T09:46:47.795Z,63.50
2019-02-11T09:51:55.046Z,62.94
2019-02-11T09:57:05.775Z,63.03
2019-02-11T10:02:17.363Z,63.03
2019-02-11T10:07:25.493Z,63.43
2019-02-11T10:12:31.363Z,62.61
2019-02-11T10:17:37.963Z,62.00
2019-02-11T10:22:43.713Z,62.00
2019-02-11T10:27:54.198Z,61.08
2019-02-11T10:33:12.134Z,60.23
2019-02-11T10:38:17.905Z,60.23
2019-02-11T10:43:26.265Z,61.06
2019-02-11T10:48:34.293Z,61.32
2019-02-11T10:53:45.528Z,60.53
2019-02-11T10:58:51.246Z,61.16
2019-02-11T11:04:00.018Z,61.01
2019-02-11T11:09:18.153Z,60.08
2019-02-11T11:14:28.109Z,60.17
2019-02-11T11:19:34.185Z,59.98
2019-02-11T11:24:45.594Z,59.31
2019-02-11T11:29:55.286Z,59.04
2019-02-11T11:35:05.255Z,58.85
2019-02-11T11:40:17.226Z,60.28
2019-02-11T11:45:30.048Z,58.89
2019-02-11T11:50:36.117Z,59.38
2019-02-11T11:55:44.953Z,58.81
2019-02-11T12:00:55.731Z,59.71
2019-02-11T12:06:03.403Z,59.40
2019-02-11T12:11:09.089Z,59.09
2019-02-11T12:16:19.199Z,59.71
2019-02-11T12:21:29.564Z,59.59
2019-02-11T12:26:37.895Z,59.41
2019-02-11T12:31:46.729Z,61.43
2019-02-11T12:36:58.183Z,65.86
2019-02-11T12:42:07.846Z,66.46
2019-02-11T12:47:15.147Z,67.58
2019-02-11T12:52:21.183Z,65.31
2019-02-11T12:57:31.603Z,64.27
2019-02-11T13:02:37.362Z,62.43
2019-02-11T13:07:45.313Z,62.18
2019-02-11T13:12:54.841Z,59.71
2019-02-11T13:18:00.529Z,59.71
2019-02-11T13:23:06.789Z,60.48
2019-02-11T13:28:12.475Z,60.48
2019-02-11T13:33:28.116Z,63.98
2019-02-11T13:38:35.839Z,63.41
2019-02-11T13:43:41.662Z,61.18
2019-02-11T13:48:51.241Z,59.29
2019-02-11T13:53:57.189Z,58.95
2019-02-11T13:59:04.803Z,58.98
2019-02-11T14:04:15.954Z,58.17
2019-02-11T14:09:21.891Z,56.33
2019-02-11T14:14:30.850Z,56.81
2019-02-11T14:19:36.565Z,56.50
2019-02-11T14:24:48.501Z,55.67
2019-02-11T14:29:58.055Z,55.32
2019-02-11T14:35:07.027Z,54.75
2019-02-11T14:40:16.282Z,55.57
2019-02-11T14:45:26.362Z,54.75
2019-02-11T14:50:32.162Z,55.15
2019-02-11T14:55:38.187Z,54.87
2019-02-11T15:00:47.944Z,55.56
2019-02-11T15:06:00.727Z,54.97
2019-02-11T15:11:07.927Z,55.20
2019-02-11T15:16:16.369Z,56.30
2019-02-11T15:21:22.302Z,55.79
2019-02-11T15:26:36.425Z,56.51
2019-02-11T15:31:42.318Z,58.04
2019-02-11T15:36:52.201Z,57.76
2019-02-11T15:41:59.981Z,57.76
2019-02-11T15:47:13.455Z,56.99
2019-02-11T15:52:19.152Z,57.07
2019-02-11T15:57:25.379Z,57.68
2019-02-11T16:02:33.006Z,57.68
2019-02-11T16:07:40.071Z,55.54
2019-02-11T16:12:45.800Z,54.83
2019-02-11T16:17:52.544Z,54.81
2019-02-11T16:23:00.458Z,55.06
2019-02-11T16:28:23.013Z,55.67
2019-02-11T16:33:40.441Z,57.18
2019-02-11T16:38:50.560Z,57.60
2019-02-11T16:44:25.089Z,60.41
2019-02-11T16:50:32.977Z,62.72
2019-02-11T16:55:43.534Z,63.80
2019-02-11T17:01:00.627Z,64.08
2019-02-11T17:06:29.104Z,64.26
2019-02-11T17:12:11.499Z,64.26
2019-02-11T17:28:34.394Z,65.65
2019-02-11T17:33:49.329Z,66.15
2019-02-11T17:39:20.016Z,65.98
2019-02-11T17:44:53.473Z,66.50
2019-02-11T17:50:15.663Z,67.08
2019-02-11T17:55:29.791Z,67.13
2019-02-11T18:00:51.367Z,67.93
2019-02-11T18:06:24.560Z,67.17
2019-02-11T18:11:32.792Z,67.80
2019-02-11T18:16:50.022Z,67.08
2019-02-11T18:22:13.767Z,67.15
2019-02-11T18:27:20.704Z,66.43
2019-02-11T18:32:31.503Z,66.13
2019-02-11T18:37:56.885Z,66.57
2019-02-11T18:43:07.137Z,66.26
2019-02-11T18:48:32.465Z,66.18
2019-02-11T18:53:55.373Z,66.53
2019-02-11T18:59:24.565Z,66.92
2019-02-11T19:04:43.519Z,67.52
2019-02-11T19:10:27.890Z,67.02
2019-02-11T19:15:59.843Z,66.11
2019-02-11T19:21:53.933Z,65.69
2019-02-11T19:27:15.981Z,65.83
2019-02-11T19:32:37.659Z,65.05
2019-02-11T19:37:55.725Z,64.54
2019-02-11T19:43:10.355Z,64.53
2019-02-11T19:48:55.431Z,64.03
2019-02-11T19:54:07.228Z,63.73
2019-02-11T19:59:20.204Z,63.93
2019-02-11T20:04:40.238Z,63.47
2019-02-11T20:09:48.914Z,63.65
2019-02-11T20:15:03.444Z,63.81
2019-02-11T20:20:26.287Z,63.29
2019-02-11T20:25:55.726Z,63.70
2019-02-11T20:31:07.671Z,63.28
2019-02-11T20:36:31.962Z,63.73
2019-02-11T20:42:07.428Z,63.90
2019-02-11T20:47:24.901Z,63.33
2019-02-11T20:58:37.650Z,62.38
2019-02-11T21:03:54.742Z,62.47
2019-02-11T21:09:32.373Z,62.41
2019-02-11T21:14:51.161Z,62.18
2019-02-11T21:20:03.992Z,62.10
2019-02-11T21:25:34.424Z,62.34
2019-02-11T21:30:58.124Z,62.58
2019-02-11T21:36:04.391Z,62.71
2019-02-11T21:41:15.268Z,63.53
2019-02-11T21:46:24.977Z,63.95
2019-02-11T21:51:35.240Z,63.45
2019-02-11T21:56:52.478Z,63.75
2019-02-11T22:02:11.429Z,64.56
2019-02-11T22:07:34.352Z,64.01
2019-02-11T22:12:44.779Z,64.29
2019-02-11T22:18:13.684Z,64.45
2019-02-11T22:23:17.300Z,64.10
2019-02-11T22:28:30.113Z,63.65
2019-02-11T22:33:57.743Z,63.66
2019-02-11T22:39:05.456Z,63.79
2019-02-11T22:44:13.279Z,63.97
2019-02-11T22:49:26.782Z,63.83
2019-02-11T22:54:37.244Z,63.53
2019-02-11T23:00:01.264Z,63.70
2019-02-11T23:05:24.700Z,63.17
2019-02-11T23:10:34.991Z,63.54
2019-02-11T23:15:40.742Z,63.16
2019-02-11T23:20:51.840Z,62.95
2019-02-11T23:25:56.926Z,62.35
2019-02-11T23:31:02.606Z,62.21
2019-02-11T23:36:11.409Z,62.42
2019-02-11T23:41:17.128Z,62.11
2019-02-11T23:46:26.128Z,61.41
